Durango, Mexico

10:51 PM CST on October 31, 2014 (GMT -0600)
Durango | Change Station
CLOSE
Current Station
Airport
Location: Durango,
Elevation: 6093 ft
Nearby Weather Stations

Elev 6093 ft 24.12 °N, 104.53 °W | Updated 11 minutes ago

Partly Cloudy
Partly Cloudy
54 °F
Feels Like 54 °F
N
5
Wind Variable Wind from North

Today
High -- | Low -- °F
--% Chance of Precip.
Yesterday
High -- | Low -- °F
Precip. -- in
7:03 AM 6:19 PM
Waxing Gibbous, 62% visible
Pressure 30.34 in
Visibility 7.0 miles
Clouds Few 20000 ft
Dew Point 34 °F
Humidity 47%
Rainfall 0.00 in
Snow Depth Not available.
UV 0 out of 12
Pollen Not available.
Air Quality Not available.
Flu Activity Not available.
METAR MMDO 010440Z 35004KT 7SM FEW200 12/01 A3034 RMK 8/004 RTS

More Conditions Fewer Conditions

Pressure 30.34 in
Visibility 7.0 miles
Clouds Few 20000 ft
Dew Point 34 °F
Humidity 47%
Rainfall 0.00 in
Snow Depth Not available.
UV 0 out of 12
Pollen Not available.
Air Quality Not available.
Flu Activity Not available.
METAR MMDO 010440Z 35004KT 7SM FEW200 12/01 A3034 RMK 8/004 RTS

More Conditions Fewer Conditions

10-Day Weather Forecast

Almanac

Astronomy

Oct. 31, 2014 Rise Set
Actual Time
Civil Twilight
Nautical Twilight
Astronomical Twilight
Moon
Length of Visible Light
Length of Day
Tomorrow will be .
, % of the Moon is Illuminated

Today's Extremes

Country Highs Country Lows

Community

WunderPhotos

Upload Photos

1,766,854 photos uploaded!

WunderBlogs® & News

Nearby

Air Quality

  Air Quality AQ Index Pollutant
Not available.

Snow Depth

Station Depth Elevation

Earthquake Activity

City Distance Mag. Time & Date
Minimum magnitude displayed is 2.5.

Coastal Water Temperatures

Place Temperature

Nearby Weather Stations